sensor_id;sensor_type;location;lat;lon;timestamp;P1;durP1;ratioP1;P2;durP2;ratioP2
3095;SDS011;1558;42.700;23.360;2023-02-28T00:01:41;5.00;;;3.23;;
3095;SDS011;1558;42.700;23.360;2023-02-28T00:04:11;3.93;;;3.50;;
3095;SDS011;1558;42.700;23.360;2023-02-28T00:06:39;4.30;;;3.43;;
3095;SDS011;1558;42.700;23.360;2023-02-28T00:09:08;3.53;;;3.10;;
3095;SDS011;1558;42.700;23.360;2023-02-28T00:11:36;3.83;;;3.27;;
3095;SDS011;1558;42.700;23.360;2023-02-28T00:14:06;3.90;;;3.43;;
3095;SDS011;1558;42.700;23.360;2023-02-28T00:16:34;4.73;;;3.33;;
3095;SDS011;1558;42.700;23.360;2023-02-28T00:19:02;3.53;;;3.23;;
3095;SDS011;1558;42.700;23.360;2023-02-28T00:21:32;4.17;;;3.77;;
3095;SDS011;1558;42.700;23.360;2023-02-28T00:23:59;3.67;;;3.37;;
3095;SDS011;1558;42.700;23.360;2023-02-28T00:26:27;3.33;;;3.03;;
3095;SDS011;1558;42.700;23.360;2023-02-28T00:28:55;4.43;;;3.63;;
3095;SDS011;1558;42.700;23.360;2023-02-28T00:31:23;4.53;;;4.13;;
3095;SDS011;1558;42.700;23.360;2023-02-28T00:33:52;3.80;;;2.80;;
3095;SDS011;1558;42.700;23.360;2023-02-28T00:36:19;4.00;;;3.53;;
3095;SDS011;1558;42.700;23.360;2023-02-28T00:38:49;3.73;;;3.43;;
3095;SDS011;1558;42.700;23.360;2023-02-28T00:41:17;3.13;;;2.80;;
3095;SDS011;1558;42.700;23.360;2023-02-28T00:43:45;3.57;;;3.27;;
3095;SDS011;1558;42.700;23.360;2023-02-28T00:46:13;3.77;;;3.03;;
3095;SDS011;1558;42.700;23.360;2023-02-28T00:48:41;3.47;;;3.17;;
3095;SDS011;1558;42.700;23.360;2023-02-28T00:51:09;2.93;;;2.63;;
3095;SDS011;1558;42.700;23.360;2023-02-28T00:53:37;3.33;;;3.03;;
3095;SDS011;1558;42.700;23.360;2023-02-28T00:56:07;4.97;;;3.50;;
3095;SDS011;1558;42.700;23.360;2023-02-28T00:58:34;4.50;;;3.13;;
3095;SDS011;1558;42.700;23.360;2023-02-28T01:01:02;4.30;;;3.07;;
3095;SDS011;1558;42.700;23.360;2023-02-28T01:03:30;3.10;;;2.87;;
3095;SDS011;1558;42.700;23.360;2023-02-28T01:05:59;5.17;;;3.47;;
3095;SDS011;1558;42.700;23.360;2023-02-28T01:08:26;3.30;;;3.00;;
3095;SDS011;1558;42.700;23.360;2023-02-28T01:10:57;2.80;;;2.60;;
3095;SDS011;1558;42.700;23.360;2023-02-28T01:13:26;3.00;;;2.80;;
3095;SDS011;1558;42.700;23.360;2023-02-28T01:15:55;3.53;;;3.20;;
3095;SDS011;1558;42.700;23.360;2023-02-28T01:18:23;3.13;;;2.83;;
3095;SDS011;1558;42.700;23.360;2023-02-28T01:20:52;3.07;;;2.40;;
3095;SDS011;1558;42.700;23.360;2023-02-28T01:23:20;4.67;;;2.50;;
3095;SDS011;1558;42.700;23.360;2023-02-28T01:25:49;3.17;;;2.73;;
3095;SDS011;1558;42.700;23.360;2023-02-28T01:28:17;3.10;;;2.80;;
3095;SDS011;1558;42.700;23.360;2023-02-28T01:30:49;2.90;;;2.70;;
3095;SDS011;1558;42.700;23.360;2023-02-28T01:33:17;4.73;;;3.50;;
3095;SDS011;1558;42.700;23.360;2023-02-28T01:35:45;3.67;;;3.37;;
3095;SDS011;1558;42.700;23.360;2023-02-28T01:38:14;4.03;;;3.57;;
3095;SDS011;1558;42.700;23.360;2023-02-28T01:40:48;3.20;;;3.00;;
3095;SDS011;1558;42.700;23.360;2023-02-28T01:43:19;3.53;;;2.87;;
3095;SDS011;1558;42.700;23.360;2023-02-28T01:45:50;3.17;;;2.90;;
3095;SDS011;1558;42.700;23.360;2023-02-28T01:48:19;6.07;;;3.40;;
3095;SDS011;1558;42.700;23.360;2023-02-28T01:50:50;3.83;;;2.80;;
3095;SDS011;1558;42.700;23.360;2023-02-28T01:53:18;5.27;;;3.37;;
3095;SDS011;1558;42.700;23.360;2023-02-28T01:56:01;3.33;;;2.40;;
3095;SDS011;1558;42.700;23.360;2023-02-28T01:58:32;5.10;;;3.03;;
3095;SDS011;1558;42.700;23.360;2023-02-28T02:01:02;2.80;;;2.60;;
3095;SDS011;1558;42.700;23.360;2023-02-28T02:03:30;3.10;;;2.80;;
3095;SDS011;1558;42.700;23.360;2023-02-28T02:05:58;4.57;;;3.40;;
3095;SDS011;1558;42.700;23.360;2023-02-28T02:08:27;3.93;;;2.73;;
3095;SDS011;1558;42.700;23.360;2023-02-28T02:10:57;6.70;;;2.73;;
3095;SDS011;1558;42.700;23.360;2023-02-28T02:13:33;3.13;;;2.77;;
3095;SDS011;1558;42.700;23.360;2023-02-28T02:16:14;3.97;;;3.10;;
3095;SDS011;1558;42.700;23.360;2023-02-28T02:18:54;3.40;;;2.47;;
3095;SDS011;1558;42.700;23.360;2023-02-28T02:21:50;3.77;;;3.17;;
3095;SDS011;1558;42.700;23.360;2023-02-28T02:30:46;3.93;;;3.63;;
3095;SDS011;1558;42.700;23.360;2023-02-28T02:33:30;4.77;;;3.63;;
3095;SDS011;1558;42.700;23.360;2023-02-28T02:36:16;2.67;;;2.47;;
3095;SDS011;1558;42.700;23.360;2023-02-28T02:38:49;5.80;;;3.73;;
3095;SDS011;1558;42.700;23.360;2023-02-28T02:41:23;5.40;;;3.47;;
3095;SDS011;1558;42.700;23.360;2023-02-28T02:43:56;5.97;;;3.87;;
3095;SDS011;1558;42.700;23.360;2023-02-28T02:46:31;5.17;;;3.27;;
3095;SDS011;1558;42.700;23.360;2023-02-28T02:49:03;7.23;;;3.83;;
3095;SDS011;1558;42.700;23.360;2023-02-28T02:51:35;4.43;;;3.27;;
3095;SDS011;1558;42.700;23.360;2023-02-28T02:54:06;4.77;;;4.37;;
3095;SDS011;1558;42.700;23.360;2023-02-28T02:56:39;3.50;;;2.87;;
3095;SDS011;1558;42.700;23.360;2023-02-28T02:59:11;5.80;;;3.90;;
3095;SDS011;1558;42.700;23.360;2023-02-28T03:01:48;4.20;;;3.43;;
3095;SDS011;1558;42.700;23.360;2023-02-28T03:04:18;4.93;;;3.70;;
3095;SDS011;1558;42.700;23.360;2023-02-28T03:06:51;3.97;;;2.87;;
3095;SDS011;1558;42.700;23.360;2023-02-28T03:09:21;4.40;;;4.00;;
3095;SDS011;1558;42.700;23.360;2023-02-28T03:11:49;5.10;;;2.97;;
3095;SDS011;1558;42.700;23.360;2023-02-28T03:14:23;4.47;;;4.07;;
3095;SDS011;1558;42.700;23.360;2023-02-28T03:20:00;3.57;;;2.87;;
3095;SDS011;1558;42.700;23.360;2023-02-28T03:25:31;2.87;;;2.67;;
3095;SDS011;1558;42.700;23.360;2023-02-28T03:28:07;4.70;;;4.07;;
3095;SDS011;1558;42.700;23.360;2023-02-28T03:30:41;7.00;;;4.43;;
3095;SDS011;1558;42.700;23.360;2023-02-28T03:33:15;3.67;;;3.10;;
3095;SDS011;1558;42.700;23.360;2023-02-28T03:35:50;4.97;;;4.53;;
3095;SDS011;1558;42.700;23.360;2023-02-28T03:38:24;4.67;;;4.17;;
3095;SDS011;1558;42.700;23.360;2023-02-28T03:41:00;5.67;;;4.63;;
3095;SDS011;1558;42.700;23.360;2023-02-28T03:43:33;4.83;;;3.70;;
3095;SDS011;1558;42.700;23.360;2023-02-28T03:46:06;4.80;;;4.17;;
3095;SDS011;1558;42.700;23.360;2023-02-28T03:48:40;4.17;;;2.87;;
3095;SDS011;1558;42.700;23.360;2023-02-28T03:51:13;4.90;;;3.90;;
3095;SDS011;1558;42.700;23.360;2023-02-28T03:53:46;6.80;;;3.70;;
3095;SDS011;1558;42.700;23.360;2023-02-28T03:56:19;5.00;;;3.13;;
3095;SDS011;1558;42.700;23.360;2023-02-28T03:58:51;5.03;;;4.13;;
3095;SDS011;1558;42.700;23.360;2023-02-28T04:01:25;6.47;;;3.90;;
3095;SDS011;1558;42.700;23.360;2023-02-28T04:03:58;5.17;;;3.70;;
3095;SDS011;1558;42.700;23.360;2023-02-28T04:06:26;5.13;;;3.47;;
3095;SDS011;1558;42.700;23.360;2023-02-28T04:08:55;6.37;;;4.10;;
3095;SDS011;1558;42.700;23.360;2023-02-28T04:11:24;4.47;;;4.07;;
3095;SDS011;1558;42.700;23.360;2023-02-28T04:13:59;3.70;;;3.47;;
3095;SDS011;1558;42.700;23.360;2023-02-28T04:16:28;5.10;;;4.33;;
3095;SDS011;1558;42.700;23.360;2023-02-28T04:19:01;5.00;;;4.20;;
3095;SDS011;1558;42.700;23.360;2023-02-28T04:21:32;5.30;;;4.07;;
3095;SDS011;1558;42.700;23.360;2023-02-28T04:24:02;5.27;;;4.77;;
3095;SDS011;1558;42.700;23.360;2023-02-28T04:26:31;5.83;;;4.20;;
3095;SDS011;1558;42.700;23.360;2023-02-28T04:29:00;5.03;;;4.53;;
3095;SDS011;1558;42.700;23.360;2023-02-28T04:31:30;4.97;;;4.47;;
3095;SDS011;1558;42.700;23.360;2023-02-28T04:34:05;4.63;;;3.80;;
3095;SDS011;1558;42.700;23.360;2023-02-28T04:36:36;10.00;;;3.90;;
3095;SDS011;1558;42.700;23.360;2023-02-28T04:39:05;5.30;;;3.80;;
3095;SDS011;1558;42.700;23.360;2023-02-28T04:41:33;6.23;;;3.90;;
3095;SDS011;1558;42.700;23.360;2023-02-28T04:44:01;4.23;;;3.83;;
3095;SDS011;1558;42.700;23.360;2023-02-28T04:46:29;6.80;;;4.97;;
3095;SDS011;1558;42.700;23.360;2023-02-28T04:48:57;4.80;;;4.40;;
3095;SDS011;1558;42.700;23.360;2023-02-28T04:51:25;3.53;;;3.10;;
3095;SDS011;1558;42.700;23.360;2023-02-28T04:53:54;7.50;;;4.40;;
3095;SDS011;1558;42.700;23.360;2023-02-28T04:56:23;5.63;;;3.80;;
3095;SDS011;1558;42.700;23.360;2023-02-28T04:58:51;8.03;;;4.83;;
3095;SDS011;1558;42.700;23.360;2023-02-28T05:01:20;5.43;;;4.03;;
3095;SDS011;1558;42.700;23.360;2023-02-28T05:03:51;4.47;;;4.07;;
3095;SDS011;1558;42.700;23.360;2023-02-28T05:06:21;6.87;;;5.07;;
3095;SDS011;1558;42.700;23.360;2023-02-28T05:08:51;10.33;;;5.33;;
3095;SDS011;1558;42.700;23.360;2023-02-28T05:11:20;7.80;;;4.83;;
3095;SDS011;1558;42.700;23.360;2023-02-28T05:13:51;3.47;;;3.10;;
3095;SDS011;1558;42.700;23.360;2023-02-28T05:16:19;6.37;;;3.90;;
3095;SDS011;1558;42.700;23.360;2023-02-28T05:18:47;6.83;;;4.27;;
3095;SDS011;1558;42.700;23.360;2023-02-28T05:21:21;6.53;;;4.83;;
3095;SDS011;1558;42.700;23.360;2023-02-28T05:23:52;7.00;;;3.53;;
3095;SDS011;1558;42.700;23.360;2023-02-28T05:26:21;9.33;;;6.13;;
3095;SDS011;1558;42.700;23.360;2023-02-28T05:28:49;8.17;;;4.47;;
3095;SDS011;1558;42.700;23.360;2023-02-28T05:31:18;5.80;;;4.63;;
3095;SDS011;1558;42.700;23.360;2023-02-28T05:33:46;7.53;;;4.40;;
3095;SDS011;1558;42.700;23.360;2023-02-28T05:38:59;4.67;;;4.23;;
3095;SDS011;1558;42.700;23.360;2023-02-28T05:41:46;6.67;;;4.07;;
3095;SDS011;1558;42.700;23.360;2023-02-28T05:44:29;7.33;;;4.43;;
3095;SDS011;1558;42.700;23.360;2023-02-28T05:47:14;4.30;;;3.80;;
3095;SDS011;1558;42.700;23.360;2023-02-28T05:49:57;6.37;;;5.00;;
3095;SDS011;1558;42.700;23.360;2023-02-28T05:52:57;5.17;;;3.63;;
3095;SDS011;1558;42.700;23.360;2023-02-28T05:55:25;5.27;;;4.43;;
3095;SDS011;1558;42.700;23.360;2023-02-28T05:57:53;3.93;;;3.60;;
3095;SDS011;1558;42.700;23.360;2023-02-28T06:00:22;6.70;;;3.80;;
3095;SDS011;1558;42.700;23.360;2023-02-28T06:02:51;7.07;;;4.87;;
3095;SDS011;1558;42.700;23.360;2023-02-28T06:05:22;5.77;;;3.80;;
3095;SDS011;1558;42.700;23.360;2023-02-28T06:07:50;5.87;;;3.87;;
3095;SDS011;1558;42.700;23.360;2023-02-28T06:10:18;6.53;;;3.80;;
3095;SDS011;1558;42.700;23.360;2023-02-28T06:12:47;8.57;;;4.23;;
3095;SDS011;1558;42.700;23.360;2023-02-28T06:15:14;6.77;;;4.90;;
3095;SDS011;1558;42.700;23.360;2023-02-28T06:17:43;5.57;;;4.17;;
3095;SDS011;1558;42.700;23.360;2023-02-28T06:20:13;6.13;;;3.83;;
3095;SDS011;1558;42.700;23.360;2023-02-28T06:22:40;5.57;;;3.27;;
3095;SDS011;1558;42.700;23.360;2023-02-28T06:25:09;4.07;;;3.53;;
3095;SDS011;1558;42.700;23.360;2023-02-28T06:27:37;6.60;;;3.50;;
3095;SDS011;1558;42.700;23.360;2023-02-28T06:30:06;3.97;;;3.13;;
3095;SDS011;1558;42.700;23.360;2023-02-28T06:32:35;5.87;;;3.87;;
3095;SDS011;1558;42.700;23.360;2023-02-28T06:35:03;5.90;;;4.37;;
3095;SDS011;1558;42.700;23.360;2023-02-28T06:37:33;7.50;;;3.70;;
3095;SDS011;1558;42.700;23.360;2023-02-28T06:40:01;5.17;;;3.97;;
3095;SDS011;1558;42.700;23.360;2023-02-28T06:42:29;4.53;;;3.83;;
3095;SDS011;1558;42.700;23.360;2023-02-28T06:44:57;8.50;;;4.90;;
3095;SDS011;1558;42.700;23.360;2023-02-28T06:47:25;8.90;;;4.80;;
3095;SDS011;1558;42.700;23.360;2023-02-28T06:49:53;5.30;;;4.10;;
3095;SDS011;1558;42.700;23.360;2023-02-28T06:52:21;5.93;;;3.50;;
3095;SDS011;1558;42.700;23.360;2023-02-28T06:54:50;4.93;;;3.40;;
3095;SDS011;1558;42.700;23.360;2023-02-28T06:57:27;5.37;;;3.53;;
3095;SDS011;1558;42.700;23.360;2023-02-28T06:59:57;3.57;;;3.13;;
3095;SDS011;1558;42.700;23.360;2023-02-28T07:02:26;4.23;;;3.17;;
3095;SDS011;1558;42.700;23.360;2023-02-28T07:04:54;4.53;;;3.33;;
3095;SDS011;1558;42.700;23.360;2023-02-28T07:07:22;3.60;;;3.30;;
3095;SDS011;1558;42.700;23.360;2023-02-28T07:09:51;5.13;;;3.30;;
3095;SDS011;1558;42.700;23.360;2023-02-28T07:12:19;5.77;;;3.83;;
3095;SDS011;1558;42.700;23.360;2023-02-28T07:14:47;3.60;;;3.10;;
3095;SDS011;1558;42.700;23.360;2023-02-28T07:17:15;4.07;;;3.63;;
3095;SDS011;1558;42.700;23.360;2023-02-28T07:19:43;3.43;;;2.80;;
3095;SDS011;1558;42.700;23.360;2023-02-28T07:22:13;6.17;;;3.83;;
3095;SDS011;1558;42.700;23.360;2023-02-28T07:24:41;4.93;;;4.50;;
3095;SDS011;1558;42.700;23.360;2023-02-28T07:27:11;4.13;;;3.70;;
3095;SDS011;1558;42.700;23.360;2023-02-28T07:29:39;7.80;;;3.67;;
3095;SDS011;1558;42.700;23.360;2023-02-28T07:32:06;4.63;;;4.10;;
3095;SDS011;1558;42.700;23.360;2023-02-28T07:34:34;3.63;;;2.80;;
3095;SDS011;1558;42.700;23.360;2023-02-28T07:37:02;3.37;;;3.07;;
3095;SDS011;1558;42.700;23.360;2023-02-28T07:39:31;3.67;;;3.33;;
3095;SDS011;1558;42.700;23.360;2023-02-28T07:41:59;3.97;;;3.63;;
3095;SDS011;1558;42.700;23.360;2023-02-28T07:44:31;5.43;;;3.50;;
3095;SDS011;1558;42.700;23.360;2023-02-28T07:46:59;5.17;;;3.87;;
3095;SDS011;1558;42.700;23.360;2023-02-28T07:49:27;4.80;;;3.90;;
3095;SDS011;1558;42.700;23.360;2023-02-28T07:51:55;4.33;;;3.30;;
3095;SDS011;1558;42.700;23.360;2023-02-28T07:54:23;4.77;;;3.97;;
3095;SDS011;1558;42.700;23.360;2023-02-28T07:56:51;10.50;;;3.63;;
3095;SDS011;1558;42.700;23.360;2023-02-28T07:59:18;5.37;;;3.70;;
3095;SDS011;1558;42.700;23.360;2023-02-28T08:01:48;4.80;;;3.07;;
3095;SDS011;1558;42.700;23.360;2023-02-28T08:04:16;4.20;;;3.80;;
3095;SDS011;1558;42.700;23.360;2023-02-28T08:06:44;5.40;;;3.73;;
3095;SDS011;1558;42.700;23.360;2023-02-28T08:09:13;4.03;;;2.90;;
3095;SDS011;1558;42.700;23.360;2023-02-28T08:11:41;3.97;;;3.33;;
3095;SDS011;1558;42.700;23.360;2023-02-28T08:14:09;4.33;;;2.37;;
3095;SDS011;1558;42.700;23.360;2023-02-28T08:16:37;4.00;;;2.73;;
3095;SDS011;1558;42.700;23.360;2023-02-28T08:19:06;5.33;;;3.67;;
3095;SDS011;1558;42.700;23.360;2023-02-28T08:21:34;4.53;;;3.33;;
3095;SDS011;1558;42.700;23.360;2023-02-28T08:24:02;3.97;;;3.47;;
3095;SDS011;1558;42.700;23.360;2023-02-28T08:26:30;5.27;;;3.17;;
3095;SDS011;1558;42.700;23.360;2023-02-28T08:28:58;4.50;;;2.70;;
3095;SDS011;1558;42.700;23.360;2023-02-28T08:31:27;3.57;;;2.97;;
3095;SDS011;1558;42.700;23.360;2023-02-28T08:33:55;4.60;;;3.60;;
3095;SDS011;1558;42.700;23.360;2023-02-28T08:36:26;3.23;;;2.90;;
3095;SDS011;1558;42.700;23.360;2023-02-28T08:38:55;3.93;;;2.43;;
3095;SDS011;1558;42.700;23.360;2023-02-28T08:41:25;3.13;;;2.67;;
3095;SDS011;1558;42.700;23.360;2023-02-28T08:43:54;5.03;;;3.03;;
3095;SDS011;1558;42.700;23.360;2023-02-28T08:46:22;4.00;;;2.47;;
3095;SDS011;1558;42.700;23.360;2023-02-28T08:48:51;5.50;;;3.27;;
3095;SDS011;1558;42.700;23.360;2023-02-28T08:51:20;2.73;;;2.50;;
3095;SDS011;1558;42.700;23.360;2023-02-28T08:53:55;2.43;;;2.23;;
3095;SDS011;1558;42.700;23.360;2023-02-28T08:56:26;32.70;;;23.20;;
3095;SDS011;1558;42.700;23.360;2023-02-28T08:58:55;29.87;;;23.73;;
3095;SDS011;1558;42.700;23.360;2023-02-28T09:01:25;31.83;;;19.80;;
3095;SDS011;1558;42.700;23.360;2023-02-28T09:03:55;32.57;;;20.73;;
3095;SDS011;1558;42.700;23.360;2023-02-28T09:06:24;23.67;;;16.77;;
3095;SDS011;1558;42.700;23.360;2023-02-28T09:08:57;26.23;;;19.07;;
3095;SDS011;1558;42.700;23.360;2023-02-28T09:14:13;27.00;;;18.00;;
3095;SDS011;1558;42.700;23.360;2023-02-28T09:16:43;22.40;;;17.17;;
3095;SDS011;1558;42.700;23.360;2023-02-28T09:19:12;26.23;;;18.13;;
3095;SDS011;1558;42.700;23.360;2023-02-28T09:21:40;28.37;;;19.17;;
3095;SDS011;1558;42.700;23.360;2023-02-28T09:24:09;22.77;;;16.47;;
3095;SDS011;1558;42.700;23.360;2023-02-28T09:26:40;24.07;;;16.57;;
3095;SDS011;1558;42.700;23.360;2023-02-28T09:29:28;21.83;;;15.93;;
3095;SDS011;1558;42.700;23.360;2023-02-28T09:31:56;24.37;;;17.20;;
3095;SDS011;1558;42.700;23.360;2023-02-28T09:34:25;22.80;;;16.33;;
3095;SDS011;1558;42.700;23.360;2023-02-28T09:36:53;21.80;;;16.23;;
3095;SDS011;1558;42.700;23.360;2023-02-28T09:39:23;22.63;;;16.17;;
3095;SDS011;1558;42.700;23.360;2023-02-28T09:41:53;23.50;;;17.53;;
3095;SDS011;1558;42.700;23.360;2023-02-28T09:44:25;27.63;;;16.67;;
3095;SDS011;1558;42.700;23.360;2023-02-28T09:46:57;22.10;;;17.83;;
3095;SDS011;1558;42.700;23.360;2023-02-28T09:49:31;21.47;;;17.50;;
3095;SDS011;1558;42.700;23.360;2023-02-28T09:52:05;25.70;;;16.70;;
3095;SDS011;1558;42.700;23.360;2023-02-28T09:54:38;21.43;;;15.73;;
3095;SDS011;1558;42.700;23.360;2023-02-28T09:57:07;23.93;;;15.27;;
3095;SDS011;1558;42.700;23.360;2023-02-28T09:59:42;17.83;;;12.77;;
3095;SDS011;1558;42.700;23.360;2023-02-28T10:02:25;22.40;;;13.63;;
3095;SDS011;1558;42.700;23.360;2023-02-28T10:05:08;18.00;;;15.70;;
3095;SDS011;1558;42.700;23.360;2023-02-28T10:07:48;24.60;;;15.20;;
3095;SDS011;1558;42.700;23.360;2023-02-28T10:10:26;18.63;;;13.77;;
3095;SDS011;1558;42.700;23.360;2023-02-28T10:12:58;20.53;;;13.73;;
3095;SDS011;1558;42.700;23.360;2023-02-28T10:15:30;21.60;;;13.83;;
3095;SDS011;1558;42.700;23.360;2023-02-28T10:18:02;19.83;;;13.47;;
3095;SDS011;1558;42.700;23.360;2023-02-28T10:20:35;21.87;;;14.53;;
3095;SDS011;1558;42.700;23.360;2023-02-28T10:23:09;25.90;;;14.27;;
3095;SDS011;1558;42.700;23.360;2023-02-28T10:25:46;21.93;;;14.60;;
3095;SDS011;1558;42.700;23.360;2023-02-28T10:28:17;18.07;;;13.57;;
3095;SDS011;1558;42.700;23.360;2023-02-28T10:30:46;20.10;;;13.60;;
3095;SDS011;1558;42.700;23.360;2023-02-28T10:33:17;18.57;;;14.17;;
3095;SDS011;1558;42.700;23.360;2023-02-28T10:35:48;20.23;;;13.60;;
3095;SDS011;1558;42.700;23.360;2023-02-28T10:38:18;17.33;;;12.80;;
3095;SDS011;1558;42.700;23.360;2023-02-28T10:40:50;15.70;;;12.30;;
3095;SDS011;1558;42.700;23.360;2023-02-28T10:43:19;16.77;;;13.10;;
3095;SDS011;1558;42.700;23.360;2023-02-28T10:45:52;16.43;;;13.50;;
3095;SDS011;1558;42.700;23.360;2023-02-28T10:48:33;14.33;;;11.60;;
3095;SDS011;1558;42.700;23.360;2023-02-28T10:51:04;19.17;;;13.70;;
3095;SDS011;1558;42.700;23.360;2023-02-28T10:53:34;20.33;;;14.40;;
3095;SDS011;1558;42.700;23.360;2023-02-28T10:56:26;21.57;;;14.03;;
3095;SDS011;1558;42.700;23.360;2023-02-28T10:58:59;17.90;;;14.47;;
3095;SDS011;1558;42.700;23.360;2023-02-28T11:01:36;19.73;;;15.40;;
3095;SDS011;1558;42.700;23.360;2023-02-28T11:04:18;26.37;;;16.73;;
3095;SDS011;1558;42.700;23.360;2023-02-28T11:06:59;24.00;;;15.07;;
3095;SDS011;1558;42.700;23.360;2023-02-28T11:09:31;21.33;;;14.70;;
3095;SDS011;1558;42.700;23.360;2023-02-28T11:12:04;18.47;;;14.93;;
3095;SDS011;1558;42.700;23.360;2023-02-28T11:14:36;19.70;;;15.37;;
3095;SDS011;1558;42.700;23.360;2023-02-28T11:17:14;19.67;;;14.27;;
3095;SDS011;1558;42.700;23.360;2023-02-28T11:19:50;20.97;;;15.13;;
3095;SDS011;1558;42.700;23.360;2023-02-28T11:22:20;23.33;;;14.83;;
3095;SDS011;1558;42.700;23.360;2023-02-28T11:24:55;17.67;;;13.07;;
3095;SDS011;1558;42.700;23.360;2023-02-28T11:27:40;25.53;;;16.20;;
3095;SDS011;1558;42.700;23.360;2023-02-28T11:30:30;23.13;;;15.17;;
3095;SDS011;1558;42.700;23.360;2023-02-28T11:33:00;17.20;;;14.20;;
3095;SDS011;1558;42.700;23.360;2023-02-28T11:35:46;17.37;;;13.43;;
3095;SDS011;1558;42.700;23.360;2023-02-28T11:38:16;16.50;;;13.47;;
3095;SDS011;1558;42.700;23.360;2023-02-28T11:40:46;28.53;;;16.00;;
3095;SDS011;1558;42.700;23.360;2023-02-28T11:43:24;20.60;;;16.53;;
3095;SDS011;1558;42.700;23.360;2023-02-28T11:46:07;21.23;;;15.80;;
3095;SDS011;1558;42.700;23.360;2023-02-28T11:48:47;20.30;;;14.37;;
3095;SDS011;1558;42.700;23.360;2023-02-28T11:51:26;22.70;;;15.03;;
3095;SDS011;1558;42.700;23.360;2023-02-28T11:54:03;17.30;;;13.83;;
3095;SDS011;1558;42.700;23.360;2023-02-28T11:56:52;18.43;;;13.87;;
3095;SDS011;1558;42.700;23.360;2023-02-28T11:59:31;18.83;;;14.10;;
3095;SDS011;1558;42.700;23.360;2023-02-28T12:02:20;23.93;;;14.97;;
3095;SDS011;1558;42.700;23.360;2023-02-28T12:04:53;21.03;;;13.90;;
3095;SDS011;1558;42.700;23.360;2023-02-28T12:07:38;19.47;;;13.40;;
3095;SDS011;1558;42.700;23.360;2023-02-28T12:10:21;16.83;;;12.13;;
3095;SDS011;1558;42.700;23.360;2023-02-28T12:12:55;19.53;;;12.60;;
3095;SDS011;1558;42.700;23.360;2023-02-28T12:15:42;19.10;;;12.20;;
3095;SDS011;1558;42.700;23.360;2023-02-28T12:18:32;15.27;;;12.33;;
3095;SDS011;1558;42.700;23.360;2023-02-28T12:21:11;18.87;;;12.33;;
3095;SDS011;1558;42.700;23.360;2023-02-28T12:23:51;24.10;;;12.37;;
3095;SDS011;1558;42.700;23.360;2023-02-28T12:26:30;20.17;;;13.20;;
3095;SDS011;1558;42.700;23.360;2023-02-28T12:29:04;18.80;;;12.43;;
3095;SDS011;1558;42.700;23.360;2023-02-28T12:31:41;15.43;;;13.10;;
3095;SDS011;1558;42.700;23.360;2023-02-28T12:34:15;27.87;;;14.10;;
3095;SDS011;1558;42.700;23.360;2023-02-28T12:36:47;17.57;;;12.93;;
3095;SDS011;1558;42.700;23.360;2023-02-28T12:39:18;20.87;;;13.00;;
3095;SDS011;1558;42.700;23.360;2023-02-28T12:41:51;19.30;;;13.90;;
3095;SDS011;1558;42.700;23.360;2023-02-28T12:44:25;18.23;;;13.23;;
3095;SDS011;1558;42.700;23.360;2023-02-28T12:47:00;19.33;;;12.50;;
3095;SDS011;1558;42.700;23.360;2023-02-28T12:49:33;18.63;;;13.13;;
3095;SDS011;1558;42.700;23.360;2023-02-28T12:52:04;16.30;;;10.30;;
3095;SDS011;1558;42.700;23.360;2023-02-28T12:54:38;20.57;;;11.60;;
3095;SDS011;1558;42.700;23.360;2023-02-28T12:57:13;18.90;;;11.23;;
3095;SDS011;1558;42.700;23.360;2023-02-28T12:59:51;21.63;;;13.90;;
3095;SDS011;1558;42.700;23.360;2023-02-28T13:02:39;22.57;;;11.67;;
3095;SDS011;1558;42.700;23.360;2023-02-28T13:08:24;17.57;;;12.47;;
3095;SDS011;1558;42.700;23.360;2023-02-28T13:11:24;20.03;;;13.13;;
3095;SDS011;1558;42.700;23.360;2023-02-28T13:13:57;19.33;;;13.13;;
3095;SDS011;1558;42.700;23.360;2023-02-28T13:16:26;17.87;;;12.67;;
3095;SDS011;1558;42.700;23.360;2023-02-28T13:19:09;18.77;;;12.80;;
3095;SDS011;1558;42.700;23.360;2023-02-28T13:21:41;24.53;;;14.03;;
3095;SDS011;1558;42.700;23.360;2023-02-28T13:24:11;20.63;;;12.53;;
3095;SDS011;1558;42.700;23.360;2023-02-28T13:27:22;23.80;;;13.77;;
3095;SDS011;1558;42.700;23.360;2023-02-28T13:29:52;21.80;;;13.73;;
3095;SDS011;1558;42.700;23.360;2023-02-28T13:38:12;18.77;;;12.37;;
3095;SDS011;1558;42.700;23.360;2023-02-28T13:40:44;18.73;;;12.03;;
3095;SDS011;1558;42.700;23.360;2023-02-28T13:43:14;19.67;;;12.60;;
3095;SDS011;1558;42.700;23.360;2023-02-28T13:46:10;17.27;;;11.43;;
3095;SDS011;1558;42.700;23.360;2023-02-28T13:48:39;17.23;;;12.90;;
3095;SDS011;1558;42.700;23.360;2023-02-28T13:51:30;22.23;;;13.97;;
3095;SDS011;1558;42.700;23.360;2023-02-28T13:54:21;21.93;;;14.13;;
3095;SDS011;1558;42.700;23.360;2023-02-28T13:57:03;18.23;;;14.67;;
3095;SDS011;1558;42.700;23.360;2023-02-28T13:59:48;22.23;;;14.60;;
3095;SDS011;1558;42.700;23.360;2023-02-28T14:02:34;17.23;;;11.17;;
3095;SDS011;1558;42.700;23.360;2023-02-28T14:16:36;25.00;;;14.03;;
3095;SDS011;1558;42.700;23.360;2023-02-28T14:19:14;13.90;;;11.77;;
3095;SDS011;1558;42.700;23.360;2023-02-28T14:21:58;18.03;;;11.40;;
3095;SDS011;1558;42.700;23.360;2023-02-28T14:27:37;21.37;;;13.23;;
3095;SDS011;1558;42.700;23.360;2023-02-28T14:33:25;20.30;;;12.50;;
3095;SDS011;1558;42.700;23.360;2023-02-28T14:36:16;17.63;;;11.70;;
3095;SDS011;1558;42.700;23.360;2023-02-28T14:38:48;18.40;;;11.97;;
3095;SDS011;1558;42.700;23.360;2023-02-28T14:41:21;18.23;;;12.30;;
3095;SDS011;1558;42.700;23.360;2023-02-28T14:43:52;17.70;;;12.07;;
3095;SDS011;1558;42.700;23.360;2023-02-28T14:46:22;17.43;;;12.43;;
3095;SDS011;1558;42.700;23.360;2023-02-28T14:48:58;20.33;;;13.87;;
3095;SDS011;1558;42.700;23.360;2023-02-28T14:51:30;19.20;;;12.80;;
3095;SDS011;1558;42.700;23.360;2023-02-28T14:54:00;20.40;;;13.43;;
3095;SDS011;1558;42.700;23.360;2023-02-28T14:56:33;22.73;;;13.30;;
3095;SDS011;1558;42.700;23.360;2023-02-28T14:59:02;21.47;;;13.67;;
3095;SDS011;1558;42.700;23.360;2023-02-28T15:01:32;17.93;;;12.47;;
3095;SDS011;1558;42.700;23.360;2023-02-28T15:04:02;21.30;;;13.77;;
3095;SDS011;1558;42.700;23.360;2023-02-28T15:06:32;21.33;;;15.47;;
3095;SDS011;1558;42.700;23.360;2023-02-28T15:09:07;19.63;;;11.90;;
3095;SDS011;1558;42.700;23.360;2023-02-28T15:11:38;15.67;;;12.33;;
3095;SDS011;1558;42.700;23.360;2023-02-28T15:14:12;18.40;;;13.20;;
3095;SDS011;1558;42.700;23.360;2023-02-28T15:16:44;17.93;;;11.87;;
3095;SDS011;1558;42.700;23.360;2023-02-28T15:19:21;16.07;;;11.70;;
3095;SDS011;1558;42.700;23.360;2023-02-28T15:21:54;15.40;;;11.60;;
3095;SDS011;1558;42.700;23.360;2023-02-28T15:24:30;18.47;;;13.50;;
3095;SDS011;1558;42.700;23.360;2023-02-28T15:27:03;14.43;;;11.13;;
3095;SDS011;1558;42.700;23.360;2023-02-28T15:29:41;14.90;;;11.10;;
3095;SDS011;1558;42.700;23.360;2023-02-28T15:32:27;15.30;;;12.23;;
3095;SDS011;1558;42.700;23.360;2023-02-28T15:34:59;16.23;;;12.00;;
3095;SDS011;1558;42.700;23.360;2023-02-28T15:37:52;14.13;;;11.80;;
3095;SDS011;1558;42.700;23.360;2023-02-28T15:40:23;15.07;;;12.13;;
3095;SDS011;1558;42.700;23.360;2023-02-28T15:42:58;13.37;;;11.20;;
3095;SDS011;1558;42.700;23.360;2023-02-28T15:45:28;15.37;;;12.10;;
3095;SDS011;1558;42.700;23.360;2023-02-28T15:48:20;14.20;;;11.10;;
3095;SDS011;1558;42.700;23.360;2023-02-28T15:50:52;15.80;;;11.83;;
3095;SDS011;1558;42.700;23.360;2023-02-28T15:53:23;13.17;;;11.27;;
3095;SDS011;1558;42.700;23.360;2023-02-28T15:55:54;16.30;;;11.83;;
3095;SDS011;1558;42.700;23.360;2023-02-28T15:58:28;17.87;;;13.80;;
3095;SDS011;1558;42.700;23.360;2023-02-28T16:01:01;14.57;;;12.67;;
3095;SDS011;1558;42.700;23.360;2023-02-28T16:03:41;13.50;;;12.17;;
3095;SDS011;1558;42.700;23.360;2023-02-28T16:06:32;12.97;;;11.27;;
3095;SDS011;1558;42.700;23.360;2023-02-28T16:09:10;12.43;;;11.13;;